Main page
METAR-TAF:

METAR-TAF

Airports :

Midtjyllands Airport

Karup, Denmark

latitude: 56-18N, longitude: 009-07E, elevation: 52 m

Current weather observation

The report was made 27 minutes ago, at 19:20 UTC
Wind 11 kt from the West
Temperature 11°C
Humidity 76%
Pressure 1018 hPa
Visibility 10 km or more

METAR: EKKA 191920Z AUTO 27011KT 9999 BKN024/// 11/07 Q1018

Time: 21:47 (19:47 UTC)

Forecast

The report was made 2 hours and 36 minutes ago, at 17:11 UTC
Forecast valid from 19 at 18 UTC to 20 at 18 UTC
Wind 15 kt from the West
Visibility 10 km or more
Scattered clouds at a height of 3000 ft

TAF: EKKA 191711Z 1918/2018 27015KT 9999 SCT030

Weather observations and forecasts of more than 4000 airports (METAR and TAF reports).

The available stations are represented by yellow and red dots on the map.

Hover mouse over dot to see the name of the station.

Then click to see weather observations and forecasts.

To change the map : click on the green buttons with a black cross to zoom in, on the green button with a dash to zoom out, or on the green arrows for adjacent maps.


METAR-TAF: